Time;durP1;ratioP1;P1;durP2;ratioP2;P2;SDS_P1;SDS_P2;PMS_P1;PMS_P2;Temp;Humidity;BMP_temperature;BMP_pressure;BME280_temperature;BME280_humidity;BME280_pressure;Samples;Min_cycle;Max_cycle;Signal;HPM_P1;HPM_P2
2022/04/25 00:00:36;;;;;;;7.57;7.07;;;;;;;;;;5056198;28;20473;-61
2022/04/25 00:03:03;;;;;;;6.13;5.90;;;;;;;;;;5056297;28;20415;-61
2022/04/25 00:05:29;;;;;;;5.53;5.13;;;;;;;;;;5056480;28;20427;-61
2022/04/25 00:07:55;;;;;;;6.37;5.87;;;;;;;;;;5056225;28;20410;-61
2022/04/25 00:10:21;;;;;;;6.23;6.03;;;;;;;;;;5056152;28;20431;-62
2022/04/25 00:12:47;;;;;;;4.90;4.80;;;;;;;;;;5056284;28;20446;-62
2022/04/25 00:15:13;;;;;;;5.90;5.70;;;;;;;;;;5055995;28;20781;-61
2022/04/25 00:17:39;;;;;;;5.93;5.53;;;;;;;;;;5056033;28;20890;-61
2022/04/25 00:20:07;;;;;;;5.53;5.20;;;;;;;;;;5055990;28;20390;-62
2022/04/25 00:22:33;;;;;;;5.70;5.60;;;;;;;;;;5055947;28;20450;-62
2022/04/25 00:24:59;;;;;;;5.60;5.40;;;;;;;;;;5055856;28;20442;-62
2022/04/25 00:27:27;;;;;;;5.07;4.97;;;;;;;;;;5055837;28;20423;-62
2022/04/25 00:29:53;;;;;;;6.40;6.00;;;;;;;;;;5055772;28;20395;-61
2022/04/25 00:32:19;;;;;;;5.00;4.80;;;;;;;;;;5055063;28;20418;-62
2022/04/25 00:34:45;;;;;;;5.80;5.43;;;;;;;;;;5056006;28;20411;-70
2022/04/25 00:37:11;;;;;;;4.87;4.77;;;;;;;;;;5055602;28;20887;-67
2022/04/25 00:39:37;;;;;;;5.33;5.03;;;;;;;;;;5055843;28;20460;-71
2022/04/25 00:42:03;;;;;;;4.80;4.70;;;;;;;;;;5055383;28;20512;-70
2022/04/25 00:44:29;;;;;;;5.50;5.20;;;;;;;;;;5055487;28;20882;-62
2022/04/25 00:46:55;;;;;;;4.80;4.70;;;;;;;;;;5055669;28;20430;-61
2022/04/25 00:49:22;;;;;;;5.20;5.00;;;;;;;;;;5055424;28;20407;-62
2022/04/25 00:51:51;;;;;;;4.60;4.50;;;;;;;;;;5055616;28;20438;-61
2022/04/25 00:54:17;;;;;;;4.93;4.73;;;;;;;;;;5055551;28;20474;-64
2022/04/25 00:56:43;;;;;;;4.30;4.30;;;;;;;;;;5055280;28;20415;-63
2022/04/25 00:59:10;;;;;;;5.00;4.80;;;;;;;;;;5055210;28;20461;-61
2022/04/25 01:01:36;;;;;;;3.83;3.73;;;;;;;;;;5055074;28;20466;-62
2022/04/25 01:04:02;;;;;;;4.07;3.97;;;;;;;;;;5055408;28;20478;-61
2022/04/25 01:06:28;;;;;;;4.80;4.70;;;;;;;;;;5055011;28;20421;-64
2022/04/25 01:08:57;;;;;;;4.40;4.30;;;;;;;;;;5055064;28;20415;-61
2022/04/25 01:11:23;;;;;;;4.80;4.70;;;;;;;;;;5054859;28;20399;-62
2022/04/25 01:13:49;;;;;;;3.83;3.83;;;;;;;;;;5054932;28;20456;-61
2022/04/25 01:16:15;;;;;;;4.80;4.70;;;;;;;;;;5054818;28;20395;-61
2022/04/25 01:18:42;;;;;;;4.80;4.63;;;;;;;;;;5054815;28;20445;-62
2022/04/25 01:21:13;;;;;;;4.33;4.13;;;;;;;;;;5054739;28;20680;-62
2022/04/25 01:29:09;;;;;;;6.03;5.73;;;;;;;;;;5054567;28;20403;-62
2022/04/25 01:31:35;;;;;;;5.80;5.60;;;;;;;;;;5054595;28;20422;-61
2022/04/25 01:34:01;;;;;;;5.03;4.93;;;;;;;;;;5054807;28;20404;-62
2022/04/25 01:36:30;;;;;;;4.90;4.50;;;;;;;;;;5054456;28;20406;-61
2022/04/25 01:38:56;;;;;;;5.23;5.10;;;;;;;;;;5053181;28;20437;-61
2022/04/25 01:41:22;;;;;;;5.13;4.83;;;;;;;;;;5054059;28;20847;-69
2022/04/25 01:43:48;;;;;;;4.57;4.47;;;;;;;;;;5053441;28;20407;-61
2022/04/25 01:46:14;;;;;;;4.40;4.20;;;;;;;;;;5054570;28;20789;-64
2022/04/25 01:48:41;;;;;;;4.40;4.37;;;;;;;;;;5054292;28;20410;-63
2022/04/25 01:51:07;;;;;;;4.70;4.50;;;;;;;;;;5054279;28;20528;-61
2022/04/25 01:53:33;;;;;;;3.90;3.90;;;;;;;;;;5054233;28;20400;-63
2022/04/25 01:55:59;;;;;;;3.03;2.90;;;;;;;;;;5054182;28;20407;-61
2022/04/25 01:58:25;;;;;;;3.47;3.37;;;;;;;;;;5054309;28;20457;-62
2022/04/25 02:00:51;;;;;;;2.87;2.87;;;;;;;;;;5054001;28;20577;-61
2022/04/25 02:03:17;;;;;;;3.20;3.10;;;;;;;;;;5054049;28;20399;-63
2022/04/25 02:05:46;;;;;;;3.23;3.13;;;;;;;;;;5054457;28;20431;-62
2022/04/25 02:08:12;;;;;;;3.80;3.40;;;;;;;;;;5053975;28;20407;-62
2022/04/25 02:10:38;;;;;;;3.30;3.30;;;;;;;;;;5052597;28;20525;-71
2022/04/25 02:13:04;;;;;;;6.93;2.53;;;;;;;;;;5054162;28;20426;-71
2022/04/25 02:15:30;;;;;;;6.57;2.77;;;;;;;;;;5053866;28;20423;-67
2022/04/25 02:17:56;;;;;;;2.40;2.40;;;;;;;;;;5053856;28;20419;-67
2022/04/25 02:20:22;;;;;;;3.07;2.83;;;;;;;;;;5053704;28;20422;-69
2022/04/25 02:22:48;;;;;;;2.60;2.60;;;;;;;;;;5053706;28;20946;-71
2022/04/25 02:25:14;;;;;;;2.73;2.73;;;;;;;;;;5053716;28;20422;-71
2022/04/25 02:27:40;;;;;;;2.47;2.47;;;;;;;;;;5053639;28;20463;-64
2022/04/25 02:30:07;;;;;;;3.13;2.93;;;;;;;;;;5053541;28;20447;-71
2022/04/25 02:32:33;;;;;;;2.73;2.50;;;;;;;;;;5053588;28;20422;-71
2022/04/25 02:35:02;;;;;;;3.40;3.20;;;;;;;;;;5053550;28;20415;-71
2022/04/25 02:37:28;;;;;;;2.93;2.83;;;;;;;;;;5053457;28;20403;-71
2022/04/25 02:39:54;;;;;;;3.17;3.07;;;;;;;;;;5053715;28;20414;-71
2022/04/25 02:42:21;;;;;;;3.83;3.00;;;;;;;;;;5053189;28;20831;-71
2022/04/25 02:44:48;;;;;;;2.97;2.97;;;;;;;;;;5053398;28;20468;-71
2022/04/25 02:47:14;;;;;;;3.80;3.80;;;;;;;;;;5053601;28;20415;-71
2022/04/25 02:49:40;;;;;;;3.30;3.10;;;;;;;;;;5053353;28;20780;-71
2022/04/25 02:52:06;;;;;;;3.30;3.17;;;;;;;;;;5053369;28;20501;-71
2022/04/25 02:54:32;;;;;;;3.53;3.43;;;;;;;;;;5053705;28;20468;-71
2022/04/25 02:56:58;;;;;;;3.13;3.13;;;;;;;;;;5059816;28;20513;-71
2022/04/25 02:59:24;;;;;;;2.93;2.93;;;;;;;;;;5059861;28;20413;-71
2022/04/25 03:01:50;;;;;;;3.87;3.60;;;;;;;;;;5059850;28;20522;-70
2022/04/25 03:04:16;;;;;;;3.30;3.30;;;;;;;;;;5059928;28;20402;-70
2022/04/25 03:06:42;;;;;;;4.33;4.00;;;;;;;;;;5059931;28;20443;-71
2022/04/25 03:09:08;;;;;;;4.23;3.90;;;;;;;;;;5059828;28;20429;-71
2022/04/25 03:11:36;;;;;;;5.30;3.13;;;;;;;;;;5059751;28;20886;-65
2022/04/25 03:14:02;;;;;;;3.33;3.33;;;;;;;;;;5060057;28;20406;-64
2022/04/25 03:16:29;;;;;;;3.80;3.50;;;;;;;;;;5059807;28;20414;-62
2022/04/25 03:18:58;;;;;;;3.67;3.57;;;;;;;;;;5059757;28;20394;-71
2022/04/25 03:21:24;;;;;;;3.90;3.70;;;;;;;;;;5059904;28;20481;-70
2022/04/25 03:23:51;;;;;;;4.70;4.40;;;;;;;;;;5059826;28;20799;-70
2022/04/25 03:26:17;;;;;;;3.47;3.37;;;;;;;;;;5059897;28;20399;-71
2022/04/25 03:28:43;;;;;;;3.97;3.60;;;;;;;;;;5059608;28;20410;-71
2022/04/25 03:31:09;;;;;;;4.50;3.80;;;;;;;;;;5058393;28;20431;-71
2022/04/25 03:33:36;;;;;;;4.03;3.90;;;;;;;;;;5059629;28;20441;-72
2022/04/25 03:36:02;;;;;;;3.77;3.67;;;;;;;;;;5059668;28;20399;-71
2022/04/25 03:38:29;;;;;;;3.83;3.73;;;;;;;;;;5059653;28;20894;-70
2022/04/25 03:40:55;;;;;;;3.83;3.73;;;;;;;;;;5059352;28;20464;-71
2022/04/25 03:43:23;;;;;;;4.63;4.30;;;;;;;;;;5059657;28;20487;-71
2022/04/25 03:45:49;;;;;;;4.80;4.60;;;;;;;;;;5059802;28;20395;-71
2022/04/25 03:48:15;;;;;;;4.60;4.40;;;;;;;;;;5059795;28;20407;-71
2022/04/25 03:50:41;;;;;;;5.00;4.80;;;;;;;;;;5059448;28;20464;-71
2022/04/25 03:53:08;;;;;;;76.67;65.13;;;;;;;;;;5059516;28;20823;-71
2022/04/25 03:58:18;;;;;;;5.00;4.80;;;;;;;;;;5059515;28;20410;-70
2022/04/25 04:00:44;;;;;;;4.73;4.63;;;;;;;;;;5059615;28;20506;-71
2022/04/25 04:03:14;;;;;;;4.93;4.83;;;;;;;;;;5059331;28;20407;-70
2022/04/25 04:05:42;;;;;;;4.77;4.67;;;;;;;;;;5059348;28;20825;-71
2022/04/25 04:08:08;;;;;;;5.10;5.00;;;;;;;;;;5055388;28;20391;-71
2022/04/25 04:10:34;;;;;;;5.00;4.80;;;;;;;;;;5056140;28;20989;-71
2022/04/25 04:13:00;;;;;;;5.17;4.80;;;;;;;;;;5056068;28;20420;-71
2022/04/25 04:15:26;;;;;;;4.53;4.33;;;;;;;;;;5056024;28;20407;-71
2022/04/25 04:17:52;;;;;;;4.50;4.40;;;;;;;;;;5056084;28;20461;-71
2022/04/25 04:20:18;;;;;;;4.63;4.30;;;;;;;;;;5055967;28;20442;-71
2022/04/25 04:22:44;;;;;;;4.00;3.90;;;;;;;;;;5055967;28;20493;-71
2022/04/25 04:25:14;;;;;;;3.73;3.67;;;;;;;;;;5055889;28;20896;-71
2022/04/25 04:27:41;;;;;;;3.93;3.83;;;;;;;;;;5056067;28;20422;-71
2022/04/25 04:30:18;;;;;;;3.40;3.40;;;;;;;;;;5055762;28;20448;-71
2022/04/25 04:32:44;;;;;;;3.57;3.47;;;;;;;;;;5055830;28;20460;-67
2022/04/25 04:35:13;;;;;;;8.77;3.93;;;;;;;;;;5055770;28;20905;-71
2022/04/25 04:37:39;;;;;;;2.83;2.73;;;;;;;;;;5055632;28;20406;-70
2022/04/25 04:42:51;;;;;;;4.40;4.30;;;;;;;;;;5055824;28;20457;-70
2022/04/25 04:45:17;;;;;;;4.23;4.23;;;;;;;;;;5055788;28;20399;-71
2022/04/25 04:47:43;;;;;;;4.20;4.10;;;;;;;;;;5055545;28;20418;-71
2022/04/25 04:50:14;;;;;;;3.10;3.10;;;;;;;;;;5055599;28;20399;-71
2022/04/25 04:52:40;;;;;;;3.03;3.03;;;;;;;;;;5055399;28;20406;-69
2022/04/25 04:55:06;;;;;;;3.63;3.50;;;;;;;;;;5055287;28;20897;-64
2022/04/25 04:57:32;;;;;;;3.50;3.40;;;;;;;;;;5055132;28;20825;-71
2022/04/25 04:59:58;;;;;;;3.17;3.07;;;;;;;;;;5055255;28;20403;-71
2022/04/25 05:02:24;;;;;;;4.70;4.70;;;;;;;;;;5055120;28;20831;-71
2022/04/25 05:04:50;;;;;;;4.60;4.50;;;;;;;;;;5055127;28;20411;-69
2022/04/25 05:07:16;;;;;;;5.20;5.10;;;;;;;;;;5055339;28;20418;-71
2022/04/25 05:09:42;;;;;;;4.27;4.17;;;;;;;;;;5055033;28;20960;-71
2022/04/25 05:12:09;;;;;;;5.90;5.60;;;;;;;;;;5054994;28;20415;-71
2022/04/25 05:14:35;;;;;;;2.83;2.83;;;;;;;;;;5053728;28;20426;-67
2022/04/25 05:17:01;;;;;;;3.37;3.37;;;;;;;;;;5054881;28;20560;-71
2022/04/25 05:19:27;;;;;;;3.20;3.10;;;;;;;;;;5054617;28;20783;-70
2022/04/25 05:21:53;;;;;;;3.67;3.57;;;;;;;;;;5054658;28;20463;-68
2022/04/25 05:24:19;;;;;;;4.33;4.23;;;;;;;;;;5054663;28;20894;-72
2022/04/25 05:26:45;;;;;;;3.60;3.50;;;;;;;;;;5054628;28;20426;-68
2022/04/25 05:29:14;;;;;;;4.27;4.17;;;;;;;;;;5054621;28;20438;-70
2022/04/25 05:31:40;;;;;;;3.00;2.80;;;;;;;;;;5054883;28;20494;-70
2022/04/25 05:34:06;;;;;;;3.33;3.33;;;;;;;;;;5054459;28;20466;-70
2022/04/25 05:36:32;;;;;;;4.23;3.87;;;;;;;;;;5054516;28;20456;-64
2022/04/25 05:38:57;;;;;;;4.20;4.00;;;;;;;;;;5054471;28;20411;-70
2022/04/25 05:41:24;;;;;;;3.30;3.30;;;;;;;;;;5054287;28;20468;-68
2022/04/25 05:43:50;;;;;;;3.47;3.37;;;;;;;;;;5054352;28;20892;-68
2022/04/25 05:46:16;;;;;;;2.93;2.93;;;;;;;;;;5054333;28;20433;-69
2022/04/25 05:54:12;;;;;;;4.53;4.33;;;;;;;;;;5054490;28;20445;-65
2022/04/25 05:56:39;;;;;;;3.43;3.33;;;;;;;;;;5054095;28;20415;-68
2022/04/25 05:59:05;;;;;;;3.50;3.30;;;;;;;;;;5054112;28;20406;-65
2022/04/25 06:01:31;;;;;;;3.23;3.13;;;;;;;;;;5054184;28;20793;-65
2022/04/25 06:03:57;;;;;;;3.83;3.73;;;;;;;;;;5054052;28;20421;-63
2022/04/25 06:06:26;;;;;;;3.63;3.53;;;;;;;;;;5054059;28;20399;-70
2022/04/25 06:08:52;;;;;;;10.70;9.93;;;;;;;;;;5054192;28;20406;-69
2022/04/25 06:11:18;;;;;;;6.77;6.43;;;;;;;;;;5053863;28;20395;-66
2022/04/25 06:13:44;;;;;;;4.20;4.10;;;;;;;;;;5053824;28;20448;-65
2022/04/25 06:16:11;;;;;;;5.40;5.00;;;;;;;;;;5054102;28;20418;-67
2022/04/25 06:18:37;;;;;;;4.73;4.53;;;;;;;;;;5053737;28;20502;-66
2022/04/25 06:21:03;;;;;;;5.67;5.47;;;;;;;;;;5053787;28;20462;-69
2022/04/25 06:23:30;;;;;;;5.50;5.30;;;;;;;;;;5053382;28;20521;-68
2022/04/25 06:25:56;;;;;;;5.83;5.27;;;;;;;;;;5053679;28;20407;-70
2022/04/25 06:28:24;;;;;;;5.43;5.33;;;;;;;;;;5053563;28;20513;-70
2022/04/25 06:30:50;;;;;;;5.40;5.20;;;;;;;;;;5052956;28;20498;-69
2022/04/25 06:33:17;;;;;;;6.43;6.03;;;;;;;;;;5053576;28;20399;-69
2022/04/25 06:35:43;;;;;;;6.30;5.93;;;;;;;;;;5053569;28;20403;-70
2022/04/25 06:38:09;;;;;;;5.63;5.30;;;;;;;;;;5053552;28;20400;-70
2022/04/25 06:40:37;;;;;;;4.80;4.60;;;;;;;;;;5053291;28;20457;-70
2022/04/25 06:43:03;;;;;;;5.10;5.00;;;;;;;;;;5053322;28;20427;-71
2022/04/25 06:45:30;;;;;;;6.63;6.33;;;;;;;;;;5053363;28;20405;-68
2022/04/25 06:47:56;;;;;;;8.07;7.47;;;;;;;;;;5053629;28;20411;-66
2022/04/25 06:50:22;;;;;;;7.57;7.07;;;;;;;;;;5053598;28;20407;-65
2022/04/25 06:52:48;;;;;;;7.20;6.80;;;;;;;;;;5053297;28;20407;-68
2022/04/25 06:55:14;;;;;;;6.37;6.00;;;;;;;;;;5053261;28;20407;-66
2022/04/25 06:57:40;;;;;;;5.53;5.33;;;;;;;;;;5053211;28;21001;-65
2022/04/25 07:00:11;;;;;;;5.67;5.43;;;;;;;;;;5053292;28;20431;-66
2022/04/25 07:02:37;;;;;;;6.33;5.83;;;;;;;;;;5053009;28;20469;-64
2022/04/25 07:05:05;;;;;;;8.37;7.67;;;;;;;;;;5053198;28;20410;-65
2022/04/25 07:07:31;;;;;;;7.53;7.13;;;;;;;;;;5053490;28;20800;-64
2022/04/25 07:09:57;;;;;;;9.30;8.77;;;;;;;;;;5053109;28;20411;-66
2022/04/25 07:12:23;;;;;;;8.60;8.10;;;;;;;;;;5053168;28;20419;-66
2022/04/25 07:14:49;;;;;;;8.90;8.20;;;;;;;;;;5053045;28;20549;-64
2022/04/25 07:17:16;;;;;;;9.40;8.50;;;;;;;;;;5053012;28;20415;-65
2022/04/25 07:19:42;;;;;;;10.20;9.50;;;;;;;;;;5053015;28;20413;-66
2022/04/25 07:30:25;;;;;;;10.70;9.90;;;;;;;;;;5041876;28;20414;-66
2022/04/25 07:32:51;;;;;;;11.13;10.30;;;;;;;;;;5053188;28;20422;-66
2022/04/25 07:35:18;;;;;;;11.97;11.07;;;;;;;;;;5052922;28;20396;-65
2022/04/25 07:37:44;;;;;;;12.07;11.00;;;;;;;;;;5052849;28;20870;-66
2022/04/25 07:40:10;;;;;;;18.33;13.33;;;;;;;;;;5052772;28;20391;-67
2022/04/25 07:42:38;;;;;;;13.97;12.77;;;;;;;;;;5054359;28;20474;-68
2022/04/25 07:45:04;;;;;;;15.70;14.20;;;;;;;;;;5056848;28;20399;-65
2022/04/25 07:47:31;;;;;;;15.10;13.70;;;;;;;;;;5056749;28;20415;-65
2022/04/25 07:49:57;;;;;;;14.20;12.97;;;;;;;;;;5056640;28;20412;-64
2022/04/25 07:52:23;;;;;;;19.23;15.57;;;;;;;;;;5056588;28;20517;-66
2022/04/25 07:54:51;;;;;;;16.20;14.60;;;;;;;;;;5056491;28;20434;-64
2022/04/25 07:57:18;;;;;;;16.17;14.57;;;;;;;;;;5056332;28;20509;-63
2022/04/25 07:59:44;;;;;;;21.03;16.37;;;;;;;;;;5056647;28;20435;-68
2022/04/25 08:02:10;;;;;;;17.63;15.83;;;;;;;;;;5056240;28;20509;-63
2022/04/25 08:04:36;;;;;;;22.50;16.43;;;;;;;;;;5056328;28;20406;-64
2022/04/25 08:07:02;;;;;;;18.83;16.37;;;;;;;;;;5056125;28;20502;-65
2022/04/25 08:09:28;;;;;;;18.30;16.23;;;;;;;;;;5056070;28;20469;-66
2022/04/25 08:17:56;;;;;;;18.27;16.57;;;;;;;;;;5056146;28;20422;-63
2022/04/25 08:20:09;;;;;;;18.03;16.23;;;;;;;;;;5056007;28;20444;-67
2022/04/25 08:22:40;;;;;;;20.57;16.27;;;;;;;;;;5055874;28;20894;-68
2022/04/25 08:25:29;;;;;;;17.10;15.37;;;;;;;;;;5056132;28;20812;-67
2022/04/25 08:27:55;;;;;;;20.77;18.60;;;;;;;;;;5055811;28;20414;-67
2022/04/25 08:30:21;;;;;;;21.60;19.30;;;;;;;;;;5055830;28;20491;-64
2022/04/25 08:32:47;;;;;;;21.57;19.37;;;;;;;;;;5055802;28;20894;-64
2022/04/25 08:35:14;;;;;;;26.17;22.13;;;;;;;;;;5055766;28;20406;-64
2022/04/25 08:37:41;;;;;;;24.07;21.33;;;;;;;;;;5055660;28;20450;-64
2022/04/25 08:40:07;;;;;;;29.53;23.47;;;;;;;;;;5055544;28;20898;-63
2022/04/25 08:42:33;;;;;;;24.43;21.73;;;;;;;;;;5055310;28;20492;-65
2022/04/25 08:45:00;;;;;;;27.27;24.33;;;;;;;;;;5054581;28;20503;-63
2022/04/25 08:47:31;;;;;;;35.80;27.90;;;;;;;;;;5055463;28;20471;-62
2022/04/25 08:49:58;;;;;;;28.40;24.40;;;;;;;;;;5055341;28;20455;-63
2022/04/25 08:52:25;;;;;;;29.93;23.07;;;;;;;;;;5055155;28;20391;-63
2022/04/25 08:54:52;;;;;;;27.73;23.80;;;;;;;;;;5055060;28;20419;-63
2022/04/25 08:57:18;;;;;;;30.47;23.63;;;;;;;;;;5055169;28;20407;-69
2022/04/25 08:59:45;;;;;;;28.43;25.00;;;;;;;;;;5055246;28;20410;-65
2022/04/25 09:02:12;;;;;;;29.40;24.27;;;;;;;;;;5055173;28;20469;-66
2022/04/25 09:04:38;;;;;;;26.50;22.17;;;;;;;;;;5055106;28;20768;-66
2022/04/25 09:07:04;;;;;;;8.90;8.20;;;;;;;;;;5055126;28;20419;-66
2022/04/25 09:09:31;;;;;;;8.93;8.30;;;;;;;;;;5055040;28;20878;-67
2022/04/25 09:12:09;;;;;;;5.07;4.77;;;;;;;;;;5055229;28;20773;-66
2022/04/25 09:14:36;;;;;;;6.43;4.43;;;;;;;;;;5055245;28;20491;-66
2022/04/25 09:17:03;;;;;;;3.87;3.80;;;;;;;;;;5054904;28;20465;-65
2022/04/25 09:19:29;;;;;;;4.30;3.97;;;;;;;;;;5055147;28;20406;-65
2022/04/25 09:21:55;;;;;;;4.20;4.00;;;;;;;;;;5054762;28;20860;-66
2022/04/25 09:24:22;;;;;;;4.30;4.10;;;;;;;;;;5054804;28;20941;-67
2022/04/25 09:26:50;;;;;;;4.33;4.17;;;;;;;;;;5054649;28;20457;-67
2022/04/25 09:29:24;;;;;;;4.43;3.83;;;;;;;;;;5054666;28;20403;-66
2022/04/25 09:31:50;;;;;;;5.43;5.07;;;;;;;;;;5054593;28;20411;-66
2022/04/25 09:34:59;;;;;;;5.00;4.90;;;;;;;;;;5054566;28;20776;-67
2022/04/25 09:37:06;;;;;;;5.77;5.00;;;;;;;;;;5054426;28;20512;-71
2022/04/25 09:39:32;;;;;;;5.37;5.27;;;;;;;;;;5054483;28;20886;-69
2022/04/25 09:41:59;;;;;;;5.27;5.10;;;;;;;;;;5054349;28;20486;-68
2022/04/25 09:44:26;;;;;;;5.53;5.23;;;;;;;;;;5053190;28;20434;-69
2022/04/25 09:46:51;;;;;;;5.70;5.43;;;;;;;;;;5054457;28;20425;-69
2022/04/25 09:49:21;;;;;;;5.63;5.33;;;;;;;;;;5054636;28;20399;-68
2022/04/25 09:52:05;;;;;;;6.03;5.73;;;;;;;;;;5054236;28;20414;-68
2022/04/25 09:54:31;;;;;;;6.63;5.93;;;;;;;;;;5054546;28;20403;-69
2022/04/25 09:56:57;;;;;;;6.03;5.83;;;;;;;;;;5054106;28;20423;-68
2022/04/25 09:59:23;;;;;;;6.03;5.63;;;;;;;;;;5054083;28;20407;-69
2022/04/25 10:02:04;;;;;;;5.80;5.50;;;;;;;;;;5054221;28;20480;-68
2022/04/25 10:04:34;;;;;;;6.60;6.30;;;;;;;;;;5053239;28;20438;-69
2022/04/25 10:07:06;;;;;;;6.53;6.30;;;;;;;;;;5053919;28;20411;-69
2022/04/25 10:09:35;;;;;;;7.53;7.03;;;;;;;;;;5053889;28;20871;-71
2022/04/25 10:12:03;;;;;;;7.10;6.60;;;;;;;;;;5053905;28;20472;-71
2022/04/25 10:14:29;;;;;;;7.30;7.00;;;;;;;;;;5053859;28;20443;-71
2022/04/25 10:16:56;;;;;;;6.10;5.80;;;;;;;;;;5053839;28;20411;-69
2022/04/25 10:19:23;;;;;;;6.73;6.43;;;;;;;;;;5053844;28;20947;-67
2022/04/25 10:21:51;;;;;;;5.50;5.40;;;;;;;;;;5053671;28;20946;-68
2022/04/25 10:24:18;;;;;;;6.80;5.80;;;;;;;;;;5053671;28;20864;-68
2022/04/25 10:26:44;;;;;;;5.73;5.53;;;;;;;;;;5053626;28;20446;-68
2022/04/25 10:29:13;;;;;;;5.33;5.07;;;;;;;;;;5053692;28;20402;-66
2022/04/25 10:31:41;;;;;;;5.13;4.93;;;;;;;;;;5053542;28;20414;-66
2022/04/25 10:34:08;;;;;;;5.40;5.03;;;;;;;;;;5052371;28;20564;-69
2022/04/25 10:36:40;;;;;;;4.57;4.17;;;;;;;;;;5053616;28;20438;-68
2022/04/25 10:39:27;;;;;;;4.13;3.83;;;;;;;;;;5053763;28;20493;-65
2022/04/25 10:44:40;;;;;;;3.83;3.73;;;;;;;;;;5053526;28;20403;-71
2022/04/25 10:47:06;;;;;;;3.73;3.63;;;;;;;;;;5053389;28;20949;-67
2022/04/25 10:49:36;;;;;;;3.30;3.10;;;;;;;;;;5052181;28;20502;-65
2022/04/25 10:52:04;;;;;;;3.73;3.60;;;;;;;;;;5053412;28;20184;-68
2022/04/25 10:54:51;;;;;;;3.17;2.97;;;;;;;;;;5053213;28;20903;-68
2022/04/25 10:57:17;;;;;;;2.53;2.53;;;;;;;;;;5053182;28;20424;-64
2022/04/25 10:59:44;;;;;;;2.40;2.40;;;;;;;;;;5052078;28;20896;-67
2022/04/25 11:02:23;;;;;;;2.20;2.17;;;;;;;;;;5053136;28;20470;-68
2022/04/25 11:05:09;;;;;;;2.40;2.30;;;;;;;;;;5053565;28;20777;-68
2022/04/25 11:07:36;;;;;;;2.40;2.40;;;;;;;;;;5051445;28;20415;-67
2022/04/25 11:10:02;;;;;;;2.70;2.70;;;;;;;;;;5053128;28;20472;-68
2022/04/25 11:12:47;;;;;;;2.80;2.70;;;;;;;;;;5053093;28;20408;-66
2022/04/25 11:15:13;;;;;;;2.57;2.57;;;;;;;;;;5053430;28;20746;-65
2022/04/25 11:17:59;;;;;;;2.53;2.53;;;;;;;;;;5056777;28;20530;-67
2022/04/25 11:20:43;;;;;;;2.43;2.43;;;;;;;;;;5057220;28;20408;-66
2022/04/25 11:23:27;;;;;;;2.70;2.60;;;;;;;;;;5057091;28;20828;-66
2022/04/25 11:25:55;;;;;;;2.63;2.53;;;;;;;;;;5057011;28;20488;-65
2022/04/25 11:28:21;;;;;;;2.63;2.63;;;;;;;;;;5057202;28;20417;-64
2022/04/25 11:31:07;;;;;;;2.70;2.63;;;;;;;;;;5057071;28;20428;-65
2022/04/25 11:33:46;;;;;;;2.93;2.83;;;;;;;;;;5056791;28;20439;-63
2022/04/25 11:36:13;;;;;;;2.47;2.43;;;;;;;;;;5056787;28;20866;-65
2022/04/25 11:41:25;;;;;;;2.80;2.80;;;;;;;;;;5056495;28;20496;-65
2022/04/25 11:43:51;;;;;;;3.17;2.97;;;;;;;;;;5056814;28;20403;-64
2022/04/25 11:46:17;;;;;;;3.27;2.97;;;;;;;;;;5056662;28;20440;-64
2022/04/25 11:48:47;;;;;;;2.70;2.50;;;;;;;;;;5056672;28;20908;-66
2022/04/25 11:51:21;;;;;;;3.60;3.50;;;;;;;;;;5056475;28;20411;-64
2022/04/25 11:53:47;;;;;;;3.93;3.90;;;;;;;;;;5056625;28;20406;-64
2022/04/25 11:56:17;;;;;;;3.93;3.83;;;;;;;;;;5056472;28;20947;-66
2022/04/25 11:58:43;;;;;;;4.37;4.07;;;;;;;;;;5056420;28;20414;-70
2022/04/25 12:01:10;;;;;;;4.17;3.90;;;;;;;;;;5056294;28;20474;-69
2022/04/25 12:03:36;;;;;;;3.90;3.80;;;;;;;;;;5056404;28;20499;-68
2022/04/25 12:06:12;;;;;;;4.00;3.90;;;;;;;;;;5056288;28;20403;-69
2022/04/25 12:16:54;;;;;;;3.83;3.73;;;;;;;;;;5056139;28;20397;-65
2022/04/25 12:19:22;;;;;;;3.97;3.87;;;;;;;;;;5056154;28;20402;-64
2022/04/25 12:21:59;;;;;;;5.23;4.83;;;;;;;;;;5054552;28;20501;-68
2022/04/25 12:24:25;;;;;;;4.57;4.40;;;;;;;;;;5055943;28;20415;-69
2022/04/25 12:26:51;;;;;;;4.27;4.17;;;;;;;;;;5055689;28;20425;-69
2022/04/25 12:29:17;;;;;;;5.10;4.93;;;;;;;;;;5054841;28;20886;-65
2022/04/25 12:31:49;;;;;;;5.50;5.30;;;;;;;;;;5055819;28;20403;-69
2022/04/25 12:34:16;;;;;;;5.03;4.83;;;;;;;;;;5055636;28;20389;-69
2022/04/25 12:37:00;;;;;;;5.03;4.90;;;;;;;;;;5055810;28;20552;-69
2022/04/25 12:39:27;;;;;;;6.33;5.30;;;;;;;;;;5055651;28;20408;-69
2022/04/25 12:41:56;;;;;;;4.73;4.63;;;;;;;;;;5055244;28;21008;-68
2022/04/25 12:44:23;;;;;;;4.83;4.63;;;;;;;;;;5055384;28;20983;-70
2022/04/25 12:46:54;;;;;;;5.10;4.90;;;;;;;;;;5055321;28;20497;-70
2022/04/25 12:49:22;;;;;;;5.13;4.93;;;;;;;;;;5055286;28;20402;-67
2022/04/25 12:51:52;;;;;;;4.70;4.60;;;;;;;;;;5055273;28;20391;-67
2022/04/25 12:54:22;;;;;;;5.57;5.37;;;;;;;;;;5055533;28;20398;-70
2022/04/25 12:56:49;;;;;;;5.40;5.20;;;;;;;;;;5055454;28;20407;-68
2022/04/25 12:59:29;;;;;;;6.30;5.90;;;;;;;;;;5055471;28;20406;-68
2022/04/25 13:02:09;;;;;;;5.23;5.13;;;;;;;;;;5055097;28;20470;-70
2022/04/25 13:04:55;;;;;;;6.50;6.10;;;;;;;;;;5055259;28;20490;-71
2022/04/25 13:07:21;;;;;;;6.30;4.83;;;;;;;;;;5054911;28;20418;-70
2022/04/25 13:09:47;;;;;;;5.30;5.20;;;;;;;;;;5054970;28;20560;-68
2022/04/25 13:12:14;;;;;;;6.53;6.13;;;;;;;;;;5054951;28;20471;-70
2022/04/25 13:14:40;;;;;;;6.27;6.03;;;;;;;;;;5054844;28;20432;-65
2022/04/25 13:17:06;;;;;;;6.27;5.80;;;;;;;;;;5054854;28;20457;-69
2022/04/25 13:19:32;;;;;;;6.00;5.70;;;;;;;;;;5055056;28;20397;-63
2022/04/25 13:21:58;;;;;;;6.47;6.17;;;;;;;;;;5054681;28;20476;-65
2022/04/25 13:24:25;;;;;;;4.73;4.63;;;;;;;;;;5054785;28;20947;-65
2022/04/25 13:26:53;;;;;;;6.20;5.77;;;;;;;;;;5054537;28;20901;-64
2022/04/25 13:29:19;;;;;;;6.00;5.80;;;;;;;;;;5054617;28;20784;-67
2022/04/25 13:31:45;;;;;;;6.80;6.40;;;;;;;;;;5054497;28;20421;-66
2022/04/25 13:34:12;;;;;;;5.90;5.67;;;;;;;;;;5054585;28;20489;-67
2022/04/25 13:36:38;;;;;;;6.60;6.30;;;;;;;;;;5054669;28;20421;-65
2022/04/25 13:39:04;;;;;;;6.77;6.30;;;;;;;;;;5054349;28;20493;-66
2022/04/25 13:41:30;;;;;;;6.13;5.93;;;;;;;;;;5054129;28;20536;-65
2022/04/25 13:43:56;;;;;;;5.90;5.70;;;;;;;;;;5054255;28;20407;-68
2022/04/25 13:46:22;;;;;;;8.23;5.50;;;;;;;;;;5054204;28;20415;-68
2022/04/25 13:48:50;;;;;;;6.47;6.27;;;;;;;;;;5054218;28;20402;-69
2022/04/25 13:51:17;;;;;;;5.77;5.33;;;;;;;;;;5054188;28;20405;-69
2022/04/25 13:53:44;;;;;;;5.17;5.07;;;;;;;;;;5054140;28;20715;-71
2022/04/25 13:56:10;;;;;;;5.60;5.40;;;;;;;;;;5054026;28;20497;-69
2022/04/25 13:58:37;;;;;;;5.00;4.90;;;;;;;;;;5053967;28;20415;-69
2022/04/25 14:01:04;;;;;;;5.90;5.60;;;;;;;;;;5053907;28;20527;-69
2022/04/25 14:03:30;;;;;;;6.00;5.60;;;;;;;;;;5053993;28;20817;-66
2022/04/25 14:05:56;;;;;;;5.60;5.40;;;;;;;;;;5053958;28;20411;-67
2022/04/25 14:08:23;;;;;;;6.80;6.40;;;;;;;;;;5053832;28;20430;-67
2022/04/25 14:10:50;;;;;;;6.57;6.27;;;;;;;;;;5053802;28;20404;-67
2022/04/25 14:13:18;;;;;;;6.00;5.80;;;;;;;;;;5054024;28;20507;-66
2022/04/25 14:15:44;;;;;;;5.33;5.10;;;;;;;;;;5053754;28;20395;-65
2022/04/25 14:18:10;;;;;;;6.17;5.87;;;;;;;;;;5053975;28;20501;-66
2022/04/25 14:20:37;;;;;;;5.47;5.27;;;;;;;;;;5053619;28;20961;-66
2022/04/25 14:23:04;;;;;;;5.63;5.43;;;;;;;;;;5053525;28;20466;-65
2022/04/25 14:25:30;;;;;;;5.00;4.90;;;;;;;;;;5053595;28;20403;-64
2022/04/25 14:28:00;;;;;;;6.40;5.90;;;;;;;;;;5053507;28;20553;-64
2022/04/25 14:30:26;;;;;;;11.63;10.63;;;;;;;;;;5053534;28;20755;-65
2022/04/25 14:32:53;;;;;;;9.77;9.07;;;;;;;;;;5053423;28;20421;-65
2022/04/25 14:35:19;;;;;;;6.87;6.57;;;;;;;;;;5053525;28;20455;-65
2022/04/25 14:37:45;;;;;;;6.20;5.97;;;;;;;;;;5051368;28;20437;-68
2022/04/25 14:40:12;;;;;;;6.57;6.27;;;;;;;;;;5050368;28;20898;-69
2022/04/25 14:42:38;;;;;;;6.43;6.13;;;;;;;;;;5050965;28;21121;-70
2022/04/25 14:45:04;;;;;;;8.23;7.63;;;;;;;;;;5050868;28;20895;-67
2022/04/25 14:47:30;;;;;;;15.33;7.43;;;;;;;;;;5050944;28;20419;-68
2022/04/25 14:55:26;;;;;;;9.57;8.90;;;;;;;;;;5053130;28;20541;-67
2022/04/25 14:57:52;;;;;;;10.60;9.80;;;;;;;;;;5053081;28;20411;-67
2022/04/25 15:00:19;;;;;;;11.93;10.90;;;;;;;;;;5053063;28;20406;-68
2022/04/25 15:02:45;;;;;;;11.37;10.13;;;;;;;;;;5053028;28;20967;-64
2022/04/25 15:05:11;;;;;;;11.90;10.90;;;;;;;;;;5053199;28;20488;-62
2022/04/25 15:07:37;;;;;;;17.70;11.87;;;;;;;;;;5052946;28;20834;-63
2022/04/25 15:10:04;;;;;;;20.83;16.33;;;;;;;;;;5053049;28;20413;-64
2022/04/25 15:12:30;;;;;;;13.40;12.20;;;;;;;;;;5050952;28;20423;-65
2022/04/25 15:14:56;;;;;;;15.40;13.93;;;;;;;;;;5050611;28;20971;-60
2022/04/25 15:17:22;;;;;;;16.53;14.80;;;;;;;;;;5050556;28;20930;-62
2022/04/25 15:19:48;;;;;;;14.77;13.40;;;;;;;;;;5050399;28;20506;-63
2022/04/25 15:22:14;;;;;;;13.90;12.67;;;;;;;;;;5048711;28;20470;-63
2022/04/25 15:24:40;;;;;;;16.53;14.80;;;;;;;;;;5049229;28;20423;-62
2022/04/25 15:27:06;;;;;;;16.60;14.50;;;;;;;;;;5049093;28;20988;-61
2022/04/25 15:29:32;;;;;;;15.33;13.93;;;;;;;;;;5048768;28;20421;-61